Time;durP1;ratioP1;P1;durP2;ratioP2;P2;SDS_P1;SDS_P2;PMS_P1;PMS_P2;Temp;Humidity;BMP_temperature;BMP_pressure;BME280_temperature;BME280_humidity;BME280_pressure;Samples;Min_cycle;Max_cycle;Signal;HPM_P1;HPM_P2
2022/06/14 00:01:01;;;;;;;4.70;3.25;;;10.10;99.90;;;;;;5015091;28;20869;-81
2022/06/14 00:03:33;;;;;;;8.32;3.25;;;10.10;99.90;;;;;;4987664;28;20439;-81
2022/06/14 00:06:03;;;;;;;5.13;2.80;;;10.00;99.90;;;;;;4995082;28;20391;-81
2022/06/14 00:08:29;;;;;;;8.10;3.10;;;10.00;99.90;;;;;;4995236;28;20401;-81
2022/06/14 00:10:57;;;;;;;4.50;2.70;;;10.00;99.90;;;;;;4995390;28;20400;-81
2022/06/14 00:13:24;;;;;;;5.40;2.85;;;10.00;99.90;;;;;;4995377;28;20400;-81
2022/06/14 00:15:50;;;;;;;5.50;2.55;;;9.90;99.90;;;;;;4995751;28;20405;-81
2022/06/14 00:18:16;;;;;;;6.13;2.90;;;9.90;99.90;;;;;;4995294;28;20518;-80
2022/06/14 00:20:44;;;;;;;6.07;3.05;;;9.90;99.90;;;;;;4994614;28;20962;-81
2022/06/14 00:23:10;;;;;;;7.28;2.95;;;9.90;99.90;;;;;;4977471;28;20399;-81
2022/06/14 00:25:40;;;;;;;5.63;3.00;;;9.80;99.90;;;;;;4995479;28;20893;-80
2022/06/14 00:28:10;;;;;;;6.55;3.00;;;9.70;99.90;;;;;;4995263;28;20389;-81
2022/06/14 00:30:37;;;;;;;4.72;2.90;;;9.70;99.90;;;;;;4995002;28;20459;-81
2022/06/14 00:33:04;;;;;;;4.60;2.63;;;9.70;99.90;;;;;;5003127;28;20477;-81
2022/06/14 00:35:29;;;;;;;5.15;2.97;;;9.70;99.90;;;;;;4995244;28;20408;-80
2022/06/14 00:37:56;;;;;;;6.20;3.20;;;9.70;99.90;;;;;;4977792;28;20407;-80
2022/06/14 00:40:25;;;;;;;6.15;2.80;;;9.70;99.90;;;;;;4977562;28;20410;-80
2022/06/14 00:42:52;;;;;;;6.07;3.00;;;9.70;99.90;;;;;;4977480;28;20782;-81
2022/06/14 00:45:17;;;;;;;3.88;2.72;;;9.70;99.90;;;;;;4994777;28;20381;-81
2022/06/14 00:47:43;;;;;;;5.77;3.00;;;9.60;99.90;;;;;;4994899;28;20720;-80
2022/06/14 00:50:27;;;;;;;6.70;3.03;;;9.70;99.90;;;;;;4994823;28;20391;-81
2022/06/14 00:53:20;;;;;;;6.13;3.08;;;9.60;99.90;;;;;;5008766;28;20379;-81
2022/06/14 00:55:52;;;;;;;4.53;2.80;;;9.60;99.90;;;;;;4995523;28;20991;-81
2022/06/14 00:58:22;;;;;;;9.13;3.05;;;9.50;99.90;;;;;;5012246;28;20718;-80
2022/06/14 01:00:54;;;;;;;6.80;3.20;;;9.50;99.90;;;;;;5011352;28;20873;-81
2022/06/14 01:03:23;;;;;;;6.13;2.95;;;9.50;99.90;;;;;;5011513;28;20414;-81
2022/06/14 01:06:08;;;;;;;4.40;2.65;;;9.50;99.90;;;;;;4991593;28;20395;-81
2022/06/14 01:08:56;;;;;;;7.07;3.40;;;9.50;99.90;;;;;;5006884;28;20383;-81
2022/06/14 01:12:04;;;;;;;5.05;3.00;;;9.40;99.90;;;;;;5011202;28;20861;-81
2022/06/14 01:15:03;;;;;;;6.20;2.90;;;9.30;99.90;;;;;;4983432;28;20438;-81
2022/06/14 01:17:33;;;;;;;4.88;2.80;;;9.30;99.90;;;;;;5011346;28;20379;-80
2022/06/14 01:19:59;;;;;;;4.88;3.10;;;9.30;99.90;;;;;;5010625;28;20956;-81
2022/06/14 01:22:26;;;;;;;8.88;3.30;;;9.30;99.90;;;;;;5011123;28;20474;-80
2022/06/14 01:24:53;;;;;;;5.22;2.67;;;9.30;99.90;;;;;;5011054;28;20813;-80
2022/06/14 01:27:21;;;;;;;5.28;2.70;;;9.20;99.90;;;;;;5010825;28;20390;-81
2022/06/14 01:29:56;;;;;;;5.35;3.58;;;9.20;99.90;;;;;;5010730;28;20499;-82
2022/06/14 01:32:25;;;;;;;7.18;3.53;;;9.10;99.90;;;;;;5010175;28;20906;-81
2022/06/14 01:34:53;;;;;;;8.73;3.60;;;9.10;99.90;;;;;;4991170;28;20779;-80
2022/06/14 01:37:21;;;;;;;4.57;2.95;;;9.10;99.90;;;;;;4990754;28;20381;-80
2022/06/14 01:39:47;;;;;;;6.85;3.03;;;9.00;99.90;;;;;;4991413;28;20389;-80
2022/06/14 01:42:52;;;;;;;5.53;3.53;;;9.00;99.90;;;;;;4990912;28;20381;-80
2022/06/14 01:45:26;;;;;;;7.07;4.05;;;8.90;99.90;;;;;;4986381;28;20886;-82
2022/06/14 01:48:10;;;;;;;7.88;4.25;;;8.90;99.90;;;;;;5010379;28;20402;-80
2022/06/14 01:52:02;;;;;;;7.97;4.30;;;8.90;99.90;;;;;;5010455;28;20387;-81
2022/06/14 01:54:02;;;;;;;5.38;3.58;;;8.90;99.90;;;;;;4992596;28;20747;-82
2022/06/14 01:56:48;;;;;;;8.13;3.60;;;8.90;99.90;;;;;;5010475;28;20391;-81
2022/06/14 01:59:23;;;;;;;6.53;3.70;;;8.90;99.90;;;;;;4978249;28;20902;-81
2022/06/14 02:02:08;;;;;;;5.43;4.22;;;8.80;99.90;;;;;;4990657;28;20392;-80
2022/06/14 02:04:45;;;;;;;7.78;3.92;;;8.70;99.90;;;;;;4994476;28;20386;-81
2022/06/14 02:07:39;;;;;;;7.47;4.47;;;8.70;99.90;;;;;;4973333;28;20400;-80
2022/06/14 02:10:30;;;;;;;6.60;3.83;;;8.70;99.90;;;;;;5006706;28;20403;-81
2022/06/14 02:13:07;;;;;;;10.35;4.50;;;8.60;99.90;;;;;;5010047;28;20394;-80
2022/06/14 02:15:54;;;;;;;6.47;4.00;;;8.60;99.90;;;;;;5009708;28;20403;-80
2022/06/14 02:18:31;;;;;;;8.07;4.03;;;8.60;99.90;;;;;;5008517;28;20398;-80
2022/06/14 02:21:23;;;;;;;9.15;3.80;;;8.60;99.90;;;;;;4991945;28;20438;-80
2022/06/14 02:23:59;;;;;;;7.00;3.70;;;8.70;99.90;;;;;;5009806;28;20885;-80
2022/06/14 02:26:27;;;;;;;7.00;3.83;;;8.70;99.90;;;;;;5010257;28;20387;-80
2022/06/14 02:29:20;;;;;;;8.57;3.85;;;8.70;99.90;;;;;;5009937;28;20495;-80
2022/06/14 02:32:02;;;;;;;7.95;4.20;;;8.60;99.90;;;;;;4987925;28;20395;-81
2022/06/14 02:34:34;;;;;;;10.75;4.55;;;8.60;99.90;;;;;;4994741;28;20413;-80
2022/06/14 02:37:14;;;;;;;7.95;4.15;;;8.60;99.90;;;;;;4990113;28;20496;-81
2022/06/14 02:39:46;;;;;;;7.32;4.32;;;8.60;99.90;;;;;;4985500;28;20392;-81
2022/06/14 02:42:25;;;;;;;8.15;4.32;;;8.60;99.90;;;;;;4989893;28;20420;-80
2022/06/14 02:45:03;;;;;;;8.65;4.63;;;8.50;99.90;;;;;;4974563;28;20451;-80
2022/06/14 02:47:50;;;;;;;7.45;4.05;;;8.50;99.90;;;;;;5004191;28;20494;-82
2022/06/14 02:50:40;;;;;;;5.63;3.88;;;8.50;99.90;;;;;;4992011;28;20433;-80
2022/06/14 02:53:24;;;;;;;8.75;4.20;;;8.60;99.90;;;;;;5008719;28;20442;-81
2022/06/14 02:55:58;;;;;;;7.78;4.15;;;8.60;99.90;;;;;;5009309;28;20411;-81
2022/06/14 02:58:30;;;;;;;6.13;3.97;;;8.70;99.90;;;;;;4991672;28;20426;-81
2022/06/14 03:01:17;;;;;;;8.73;3.80;;;8.70;99.90;;;;;;4991227;28;20430;-81
2022/06/14 03:03:52;;;;;;;10.63;4.07;;;8.80;99.90;;;;;;4980625;28;20411;-81
2022/06/14 03:06:25;;;;;;;6.00;3.83;;;8.90;99.90;;;;;;5003922;28;20975;-80
2022/06/14 03:09:17;;;;;;;5.93;3.58;;;8.90;99.90;;;;;;5009306;28;20383;-81
2022/06/14 03:11:53;;;;;;;7.65;4.30;;;9.00;99.90;;;;;;5009226;28;20466;-80
2022/06/14 03:14:19;;;;;;;9.20;4.20;;;9.00;99.90;;;;;;5008931;28;20403;-80
2022/06/14 03:17:03;;;;;;;12.77;4.43;;;8.90;99.90;;;;;;5008976;28;20386;-81
2022/06/14 03:19:43;;;;;;;9.13;4.22;;;9.10;99.90;;;;;;5009046;28;20418;-81
2022/06/14 03:22:40;;;;;;;9.02;3.90;;;9.10;99.90;;;;;;5003329;28;20403;-82
2022/06/14 03:25:25;;;;;;;8.68;3.65;;;9.20;99.90;;;;;;4988216;28;20391;-80
2022/06/14 03:28:01;;;;;;;7.68;3.70;;;9.40;99.90;;;;;;5008901;28;20387;-81
2022/06/14 03:30:31;;;;;;;10.02;4.05;;;9.40;99.90;;;;;;5008825;28;20396;-81
2022/06/14 03:33:19;;;;;;;9.98;3.88;;;9.40;99.90;;;;;;5008275;28;20393;-81
2022/06/14 03:35:48;;;;;;;7.00;3.38;;;9.40;99.90;;;;;;5003523;28;20414;-81
2022/06/14 03:38:19;;;;;;;7.72;3.90;;;9.50;99.90;;;;;;5008598;28;20730;-81
2022/06/14 03:40:47;;;;;;;7.68;4.22;;;9.50;99.90;;;;;;4991357;28;20395;-80
2022/06/14 03:43:14;;;;;;;8.27;3.63;;;9.60;99.90;;;;;;5008512;28;20877;-81
2022/06/14 03:45:50;;;;;;;11.25;3.85;;;9.70;99.90;;;;;;5008470;28;20387;-82
2022/06/14 03:48:16;;;;;;;9.60;4.00;;;9.70;99.90;;;;;;4990787;28;20462;-80
2022/06/14 03:51:10;;;;;;;8.33;4.10;;;9.90;99.90;;;;;;4991010;28;20821;-81
2022/06/14 03:54:07;;;;;;;6.07;3.60;;;10.00;99.90;;;;;;5008780;28;20406;-81
2022/06/14 03:57:07;;;;;;;6.90;3.60;;;10.20;99.90;;;;;;4989631;28;20437;-81
2022/06/14 04:00:02;;;;;;;11.02;3.90;;;10.40;99.90;;;;;;5008966;28;20462;-81
2022/06/14 04:02:56;;;;;;;6.23;3.33;;;10.50;99.90;;;;;;4986057;28;20392;-81
2022/06/14 04:05:47;;;;;;;5.18;3.03;;;10.50;99.90;;;;;;4985640;28;20400;-81
2022/06/14 04:08:38;;;;;;;8.45;3.47;;;10.60;99.90;;;;;;4973123;28;20860;-82
2022/06/14 04:11:26;;;;;;;7.43;3.30;;;10.70;99.90;;;;;;5005021;28;20387;-82
2022/06/14 04:13:59;;;;;;;7.10;3.40;;;10.80;99.90;;;;;;5008486;28;20391;-81
2022/06/14 04:16:37;;;;;;;7.83;3.40;;;10.80;99.90;;;;;;5008017;28;20502;-80
2022/06/14 04:19:17;;;;;;;7.13;3.40;;;10.90;99.90;;;;;;4990971;28;20817;-81
2022/06/14 04:21:54;;;;;;;7.22;3.95;;;11.00;99.90;;;;;;5008184;28;20399;-81
2022/06/14 04:24:29;;;;;;;7.38;3.75;;;11.10;99.90;;;;;;5009393;28;20897;-81
2022/06/14 04:27:25;;;;;;;8.13;3.60;;;11.30;99.90;;;;;;5010122;28;21100;-82
2022/06/14 04:30:18;;;;;;;7.23;3.50;;;11.40;99.90;;;;;;5011565;28;20383;-81
2022/06/14 04:32:46;;;;;;;7.93;3.38;;;11.60;99.90;;;;;;5008133;28;20397;-82
2022/06/14 04:35:22;;;;;;;7.47;3.28;;;11.80;99.90;;;;;;4995163;28;20536;-80
2022/06/14 04:37:54;;;;;;;9.27;3.47;;;12.00;99.90;;;;;;5015275;28;20376;-81
2022/06/14 04:40:26;;;;;;;8.43;3.72;;;12.20;99.90;;;;;;4997215;28;20385;-80
2022/06/14 04:43:06;;;;;;;9.23;3.45;;;12.20;99.90;;;;;;4980324;28;20399;-82
2022/06/14 04:45:35;;;;;;;10.00;3.70;;;12.40;99.90;;;;;;4978337;28;20396;-81
2022/06/14 04:48:18;;;;;;;8.43;3.45;;;12.50;99.90;;;;;;4997191;28;20421;-79
2022/06/14 04:50:51;;;;;;;8.85;3.50;;;12.70;99.90;;;;;;4989254;28;20477;-81
2022/06/14 04:53:25;;;;;;;6.23;3.40;;;12.80;99.90;;;;;;5015173;28;20386;-80
2022/06/14 04:56:03;;;;;;;8.88;3.88;;;13.10;99.90;;;;;;5000955;28;20789;-80
2022/06/14 04:58:44;;;;;;;8.18;3.00;;;13.40;99.90;;;;;;4997580;28;20482;-80
2022/06/14 05:01:25;;;;;;;9.95;3.05;;;13.80;99.90;;;;;;5013753;28;20414;-80
2022/06/14 05:03:56;;;;;;;6.35;2.90;;;14.00;99.90;;;;;;4987416;28;20427;-82
2022/06/14 05:06:29;;;;;;;6.97;3.15;;;14.20;99.90;;;;;;4974899;28;20421;-82
2022/06/14 05:09:17;;;;;;;7.68;3.17;;;14.40;99.90;;;;;;5005575;28;20901;-81
2022/06/14 05:11:52;;;;;;;7.35;3.05;;;14.60;99.90;;;;;;5011471;28;20470;-80
2022/06/14 05:14:27;;;;;;;7.63;2.53;;;14.80;99.90;;;;;;5011372;28;20454;-82
2022/06/14 05:16:55;;;;;;;6.87;3.07;;;15.00;99.90;;;;;;4997916;28;20451;-81
2022/06/14 05:19:39;;;;;;;8.27;3.05;;;15.00;99.90;;;;;;4997901;28;20396;-82
2022/06/14 05:22:11;;;;;;;5.85;2.67;;;15.20;99.90;;;;;;4973975;28;20442;-81
2022/06/14 05:24:38;;;;;;;7.13;2.70;;;15.40;99.90;;;;;;4973312;28;20980;-82
2022/06/14 05:27:16;;;;;;;8.05;2.80;;;15.40;99.90;;;;;;4990952;28;20388;-81
2022/06/14 05:29:45;;;;;;;12.52;3.35;;;15.50;99.90;;;;;;4991671;28;20443;-82
2022/06/14 05:32:40;;;;;;;9.23;2.95;;;15.30;99.90;;;;;;4993709;28;20473;-82
2022/06/14 05:35:37;;;;;;;8.17;3.00;;;15.50;99.90;;;;;;5007694;28;20442;-82
2022/06/14 05:38:11;;;;;;;6.53;2.58;;;15.50;99.90;;;;;;5010771;28;20395;-82
2022/06/14 05:40:56;;;;;;;7.43;3.00;;;15.70;99.90;;;;;;4993385;28;20375;-82
2022/06/14 05:43:38;;;;;;;7.53;2.63;;;15.70;99.90;;;;;;5010594;28;20858;-81
2022/06/14 05:46:03;;;;;;;8.43;2.90;;;15.70;99.90;;;;;;5010329;28;20884;-82
2022/06/14 05:48:32;;;;;;;10.03;2.87;;;15.40;99.90;;;;;;4992769;28;20387;-83
2022/06/14 05:51:00;;;;;;;9.13;2.78;;;15.30;99.90;;;;;;5010300;28;20395;-82
2022/06/14 05:53:34;;;;;;;8.55;2.95;;;15.30;99.90;;;;;;5010649;28;20381;-83
2022/06/14 05:56:16;;;;;;;10.30;2.63;;;15.30;99.90;;;;;;5010476;28;20410;-82
2022/06/14 05:58:52;;;;;;;9.88;2.60;;;15.50;99.90;;;;;;4992811;28;20383;-83
2022/06/14 06:01:28;;;;;;;12.02;3.10;;;15.70;99.90;;;;;;4993110;28;20410;-82
2022/06/14 06:03:59;;;;;;;9.25;3.08;;;15.80;99.90;;;;;;4992580;28;20391;-82
2022/06/14 06:06:30;;;;;;;7.53;2.63;;;15.50;99.90;;;;;;4992902;28;20388;-82
2022/06/14 06:09:05;;;;;;;9.68;2.75;;;15.30;99.90;;;;;;5010481;28;20375;-84
2022/06/14 06:11:55;;;;;;;5.97;2.75;;;15.30;99.90;;;;;;5010570;28;20510;-82
2022/06/14 06:14:35;;;;;;;7.33;3.10;;;15.20;99.90;;;;;;4992818;28;20435;-83
2022/06/14 06:17:13;;;;;;;8.05;3.05;;;15.40;99.90;;;;;;5011134;28;20430;-82
2022/06/14 06:19:57;;;;;;;9.23;3.13;;;15.60;99.90;;;;;;5010339;28;20474;-83
2022/06/14 06:22:59;;;;;;;9.57;2.80;;;15.70;99.90;;;;;;5009823;28;20453;-81
2022/06/14 06:25:28;;;;;;;8.88;3.47;;;15.70;99.90;;;;;;4992048;28;20419;-83
2022/06/14 06:28:00;;;;;;;8.77;3.15;;;15.80;99.90;;;;;;5010342;28;20386;-83
2022/06/14 06:30:33;;;;;;;6.72;2.78;;;16.00;99.90;;;;;;4992253;28;20441;-82
2022/06/14 06:32:59;;;;;;;8.27;3.00;;;16.50;99.90;;;;;;4992249;28;20459;-83
2022/06/14 06:35:41;;;;;;;10.43;3.30;;;16.40;99.90;;;;;;5005679;28;20413;-83
2022/06/14 06:38:43;;;;;;;10.23;2.75;;;16.40;99.90;;;;;;5001027;28;20881;-82
2022/06/14 06:44:12;;;;;;;7.10;2.75;;;16.40;99.90;;;;;;4995776;28;20377;-83
2022/06/14 06:47:14;;;;;;;10.73;3.00;;;16.50;99.90;;;;;;4972565;28;20421;-82
2022/06/14 06:50:11;;;;;;;9.60;2.90;;;16.50;99.90;;;;;;4975925;28;20437;-81
2022/06/14 06:52:40;;;;;;;7.97;2.72;;;16.70;99.90;;;;;;4983788;28;20475;-84
2022/06/14 06:55:33;;;;;;;8.35;2.33;;;17.10;99.90;;;;;;5009509;28;20967;-82
2022/06/14 06:58:03;;;;;;;8.02;2.50;;;17.20;99.90;;;;;;5001724;28;20383;-83
2022/06/14 07:00:32;;;;;;;7.88;2.40;;;17.20;99.90;;;;;;5001986;28;20393;-83
2022/06/14 07:03:04;;;;;;;8.15;2.60;;;17.20;99.90;;;;;;4978471;28;20997;-83
2022/06/14 07:05:30;;;;;;;8.80;2.63;;;17.10;99.90;;;;;;4995688;28;20389;-83
2022/06/14 07:08:02;;;;;;;8.15;2.97;;;17.30;99.90;;;;;;4988030;28;21376;-82
2022/06/14 07:10:41;;;;;;;8.13;2.67;;;17.20;99.90;;;;;;5009306;28;20382;-83
2022/06/14 07:13:34;;;;;;;9.73;2.90;;;17.20;99.90;;;;;;5010095;28;20387;-83
2022/06/14 07:16:08;;;;;;;8.05;2.50;;;17.30;99.90;;;;;;5009554;28;20410;-82
2022/06/14 07:18:49;;;;;;;10.37;2.83;;;17.40;99.90;;;;;;5009583;28;20401;-81
2022/06/14 07:21:27;;;;;;;12.65;2.90;;;17.50;99.90;;;;;;5009013;28;20441;-83
2022/06/14 07:24:07;;;;;;;9.43;2.63;;;17.50;99.90;;;;;;5009042;28;20410;-83
2022/06/14 07:26:48;;;;;;;9.02;2.90;;;17.50;99.90;;;;;;5001841;28;20392;-82
2022/06/14 07:29:28;;;;;;;9.95;2.63;;;17.50;99.90;;;;;;4972273;28;20432;-82
2022/06/14 07:32:08;;;;;;;8.23;2.33;;;17.50;99.90;;;;;;4991852;28;20456;-82
2022/06/14 07:34:36;;;;;;;9.65;2.95;;;17.60;99.90;;;;;;4992974;28;20978;-83
2022/06/14 07:37:33;;;;;;;8.75;2.60;;;18.00;99.90;;;;;;5002877;28;20391;-83
2022/06/14 07:40:07;;;;;;;7.45;2.90;;;18.30;99.90;;;;;;4988841;28;20828;-82
2022/06/14 07:43:03;;;;;;;10.00;2.80;;;18.20;99.90;;;;;;4997541;28;20395;-83
2022/06/14 07:45:37;;;;;;;8.77;2.45;;;18.50;99.90;;;;;;4987375;28;20407;-83
2022/06/14 07:48:08;;;;;;;8.05;3.50;;;18.60;99.90;;;;;;5009751;28;21519;-82
2022/06/14 07:50:49;;;;;;;10.27;2.50;;;18.50;99.90;;;;;;5009125;28;20376;-83
2022/06/14 07:53:26;;;;;;;9.48;2.75;;;18.30;99.90;;;;;;5010025;28;20387;-83
2022/06/14 07:56:04;;;;;;;7.85;2.42;;;18.20;99.90;;;;;;4990705;28;20407;-83
2022/06/14 07:58:39;;;;;;;8.88;3.10;;;18.50;99.90;;;;;;5004391;28;20869;-83
2022/06/14 08:01:13;;;;;;;7.32;2.38;;;18.50;99.90;;;;;;5009400;28;20395;-81
2022/06/14 08:04:16;;;;;;;8.05;2.25;;;18.60;99.90;;;;;;4986349;28;20447;-82
2022/06/14 08:06:56;;;;;;;6.25;2.22;;;18.70;99.90;;;;;;5004094;28;20376;-81
2022/06/14 08:09:27;;;;;;;6.43;2.10;;;18.70;99.90;;;;;;5012340;28;20441;-82
2022/06/14 08:11:55;;;;;;;8.70;2.40;;;18.60;99.90;;;;;;5012802;28;20386;-82
2022/06/14 08:14:36;;;;;;;8.63;2.10;;;18.70;99.90;;;;;;5012358;28;20376;-82
2022/06/14 08:17:05;;;;;;;8.90;2.88;;;19.00;99.90;;;;;;4995444;28;20403;-84
2022/06/14 08:19:38;;;;;;;6.95;2.13;;;19.30;99.00;;;;;;5012509;28;20433;-82
2022/06/14 08:22:08;;;;;;;4.38;1.75;;;19.10;97.70;;;;;;4994825;28;20391;-84
2022/06/14 08:24:41;;;;;;;6.72;1.80;;;18.70;95.60;;;;;;4995087;28;20387;-81
2022/06/14 08:27:25;;;;;;;6.15;1.90;;;18.50;95.50;;;;;;5012899;28;20391;-82
2022/06/14 08:29:54;;;;;;;6.13;1.83;;;;;;;;;;5012123;28;20385;-82
2022/06/14 08:32:32;;;;;;;5.43;1.70;;;18.40;98.10;;;;;;4992989;28;20464;-82
2022/06/14 08:35:09;;;;;;;6.13;1.80;;;18.70;98.20;;;;;;4975064;28;20439;-81
2022/06/14 08:38:07;;;;;;;8.20;1.88;;;19.20;96.20;;;;;;4992844;28;20396;-82
2022/06/14 08:40:44;;;;;;;7.22;2.20;;;19.20;96.00;;;;;;5008782;28;20403;-83
2022/06/14 08:43:35;;;;;;;6.20;2.00;;;19.10;97.60;;;;;;5007024;28;20416;-83
2022/06/14 08:46:21;;;;;;;6.93;1.98;;;19.20;97.70;;;;;;4996744;28;20430;-82
2022/06/14 08:49:24;;;;;;;4.85;1.80;;;19.10;99.00;;;;;;5011786;28;20379;-83
2022/06/14 08:51:50;;;;;;;5.40;2.00;;;18.90;98.50;;;;;;5007207;28;20416;-82
2022/06/14 08:54:40;;;;;;;4.80;1.83;;;18.70;98.00;;;;;;4988084;28;20501;-82
2022/06/14 08:57:37;;;;;;;7.05;2.00;;;18.80;95.60;;;;;;4974885;28;20439;-83
2022/06/14 09:00:24;;;;;;;4.18;2.05;;;18.80;96.60;;;;;;4992212;28;20389;-82
2022/06/14 09:03:29;;;;;;;7.70;2.15;;;19.00;97.80;;;;;;4980001;28;20973;-82
2022/06/14 09:06:07;;;;;;;7.07;2.13;;;19.30;97.90;;;;;;5009023;28;20884;-83
2022/06/14 09:08:33;;;;;;;6.75;2.10;;;19.40;96.70;;;;;;5011420;28;20387;-82
2022/06/14 09:11:04;;;;;;;7.30;2.42;;;19.20;97.70;;;;;;4982733;28;20384;-83
2022/06/14 09:13:43;;;;;;;12.68;2.85;;;19.10;97.90;;;;;;4991660;28;20460;-82
2022/06/14 09:16:34;;;;;;;6.22;1.90;;;18.90;97.50;;;;;;5005573;28;20406;-82
2022/06/14 09:19:28;;;;;;;4.68;1.90;;;19.00;97.80;;;;;;5010677;28;20430;-82
2022/06/14 09:22:00;;;;;;;7.75;1.95;;;19.30;96.80;;;;;;5009969;28;20449;-83
2022/06/14 09:24:47;;;;;;;6.27;2.33;;;19.30;97.60;;;;;;5010966;28;20466;-84
2022/06/14 09:27:22;;;;;;;5.38;1.88;;;19.30;97.00;;;;;;4994119;28;20373;-83
2022/06/14 09:30:08;;;;;;;6.07;2.28;;;18.90;99.90;;;;;;4974214;28;20400;-81
2022/06/14 09:33:14;;;;;;;7.10;2.05;;;18.30;99.90;;;;;;4991975;28;20382;-82
2022/06/14 09:35:48;;;;;;;8.43;1.90;;;;;;;;;;4992905;28;20474;-83
2022/06/14 09:38:35;;;;;;;6.43;2.40;;;19.00;99.90;;;;;;5004945;28;20891;-83
2022/06/14 09:41:30;;;;;;;7.00;2.45;;;19.30;99.90;;;;;;4977091;28;20909;-81
2022/06/14 09:43:56;;;;;;;7.30;2.30;;;;;;;;;;4996309;28;20394;-81
2022/06/14 09:46:35;;;;;;;5.32;2.10;;;19.30;96.80;;;;;;5008842;28;20853;-81
2022/06/14 09:49:38;;;;;;;8.10;2.10;;;19.70;97.10;;;;;;5002570;28;20377;-81
2022/06/14 09:52:23;;;;;;;6.68;1.90;;;20.00;97.00;;;;;;4997861;28;20496;-83
2022/06/14 09:55:09;;;;;;;6.47;1.88;;;19.80;95.60;;;;;;5006096;28;20912;-83
2022/06/14 09:57:49;;;;;;;6.63;1.95;;;19.70;96.20;;;;;;5010972;28;20392;-82
2022/06/14 10:00:41;;;;;;;4.72;1.83;;;19.60;96.50;;;;;;4992403;28;20383;-84
2022/06/14 10:03:24;;;;;;;5.70;1.90;;;19.60;95.20;;;;;;4984218;28;20472;-84
2022/06/14 10:06:07;;;;;;;5.63;1.70;;;19.40;95.40;;;;;;4991217;28;20546;-84
2022/06/14 10:09:00;;;;;;;5.67;1.77;;;19.60;95.50;;;;;;5004842;28;20465;-84
2022/06/14 10:11:54;;;;;;;4.35;1.80;;;19.90;98.20;;;;;;5010311;28;20395;-83
2022/06/14 10:14:42;;;;;;;5.53;2.03;;;20.70;93.70;;;;;;4992521;28;20384;-84
2022/06/14 10:17:26;;;;;;;6.45;1.80;;;21.20;92.70;;;;;;4992723;28;20383;-83
2022/06/14 10:20:03;;;;;;;5.90;1.70;;;21.20;92.70;;;;;;5010656;28;20386;-84
2022/06/14 10:23:11;;;;;;;5.25;1.88;;;21.10;92.10;;;;;;4973068;28;20393;-84
2022/06/14 10:29:14;;;;;;;7.30;2.05;;;20.60;92.90;;;;;;5008908;28;20483;-83
2022/06/14 10:31:59;;;;;;;6.25;1.80;;;20.50;91.90;;;;;;4992603;28;20384;-83
2022/06/14 10:34:49;;;;;;;4.43;1.75;;;20.10;92.90;;;;;;4991979;28;20407;-81
2022/06/14 10:37:27;;;;;;;6.10;1.52;;;20.00;94.20;;;;;;5009608;28;20887;-83
2022/06/14 10:40:16;;;;;;;6.38;1.85;;;19.70;94.00;;;;;;4990983;28;20483;-84
2022/06/14 10:42:56;;;;;;;4.40;1.70;;;19.90;93.10;;;;;;4972928;28;20486;-83
2022/06/14 10:45:31;;;;;;;6.45;2.00;;;19.90;92.80;;;;;;5012967;28;20401;-84
2022/06/14 10:48:15;;;;;;;4.10;1.60;;;20.10;93.00;;;;;;5011526;28;20399;-82
2022/06/14 10:50:49;;;;;;;6.57;2.00;;;20.30;94.10;;;;;;5013669;28;20455;-83
2022/06/14 10:53:30;;;;;;;11.65;2.50;;;20.70;93.10;;;;;;5011463;28;20402;-83
2022/06/14 10:56:20;;;;;;;5.23;1.80;;;21.10;91.80;;;;;;5013228;28;20401;-81
2022/06/14 10:58:52;;;;;;;4.45;1.73;;;21.30;91.70;;;;;;5014706;28;20401;-82
2022/06/14 11:01:45;;;;;;;4.45;1.85;;;21.80;90.60;;;;;;4993227;28;20477;-83
2022/06/14 11:04:37;;;;;;;4.20;1.65;;;21.80;90.10;;;;;;5009249;28;20400;-84
2022/06/14 11:07:33;;;;;;;3.97;1.63;;;21.40;91.50;;;;;;4983701;28;20433;-84
2022/06/14 11:10:30;;;;;;;5.60;1.80;;;21.20;90.00;;;;;;4996680;28;20761;-83
2022/06/14 11:13:20;;;;;;;5.78;1.70;;;21.20;90.80;;;;;;5012827;28;20386;-83
2022/06/14 11:15:56;;;;;;;4.03;1.60;;;21.30;90.40;;;;;;4993420;28;20403;-85
2022/06/14 11:18:36;;;;;;;5.68;1.63;;;21.40;90.20;;;;;;5010986;28;20886;-83
2022/06/14 11:21:26;;;;;;;4.20;1.67;;;21.30;90.70;;;;;;4988754;28;20456;-83
2022/06/14 11:23:55;;;;;;;4.53;1.88;;;;;;;;;;4995278;28;20379;-82
2022/06/14 11:26:59;;;;;;;4.47;1.45;;;21.20;89.60;;;;;;4996949;28;20389;-83
2022/06/14 11:29:50;;;;;;;4.75;1.48;;;21.40;91.00;;;;;;4981996;28;20447;-84
2022/06/14 11:32:25;;;;;;;3.87;1.90;;;21.20;89.00;;;;;;4982300;28;21036;-84
2022/06/14 11:35:09;;;;;;;4.97;2.00;;;21.00;90.50;;;;;;5006070;28;20490;-83
2022/06/14 11:38:02;;;;;;;4.05;1.73;;;21.20;91.00;;;;;;5008382;28;20459;-83
2022/06/14 11:40:41;;;;;;;4.80;1.75;;;21.50;87.50;;;;;;4992456;28;20385;-83
2022/06/14 11:43:32;;;;;;;5.00;1.80;;;21.50;90.40;;;;;;4981813;28;20435;-83
2022/06/14 11:46:07;;;;;;;3.47;1.58;;;21.10;88.00;;;;;;4971924;28;20397;-83
2022/06/14 11:49:06;;;;;;;6.10;1.52;;;21.00;88.30;;;;;;4983411;28;20873;-82
2022/06/14 11:52:14;;;;;;;4.47;1.60;;;20.90;90.10;;;;;;4971387;28;20459;-82
2022/06/14 11:54:56;;;;;;;4.75;1.63;;;20.80;91.10;;;;;;4983368;28;20415;-83
2022/06/14 11:57:42;;;;;;;3.55;1.33;;;20.70;90.70;;;;;;5004609;28;20905;-83
2022/06/14 12:00:23;;;;;;;5.40;1.80;;;20.80;90.00;;;;;;4973515;28;20412;-83
2022/06/14 12:03:09;;;;;;;4.85;2.00;;;21.10;88.80;;;;;;5006787;28;20419;-82
2022/06/14 12:05:44;;;;;;;5.57;1.70;;;21.40;88.20;;;;;;5002870;28;20387;-82
2022/06/14 12:08:44;;;;;;;5.00;1.50;;;21.50;88.20;;;;;;5002532;28;20434;-83
2022/06/14 12:11:30;;;;;;;5.32;1.50;;;21.60;88.70;;;;;;4994561;28;20383;-82
2022/06/14 12:14:17;;;;;;;4.13;1.53;;;21.40;86.30;;;;;;4996601;28;20468;-83
2022/06/14 12:16:47;;;;;;;5.17;1.60;;;20.80;86.90;;;;;;4974859;28;20420;-82
2022/06/14 12:19:20;;;;;;;5.55;1.90;;;20.40;86.70;;;;;;4977748;28;20399;-82
2022/06/14 12:21:51;;;;;;;5.57;1.90;;;20.20;88.20;;;;;;5005462;28;20786;-83
2022/06/14 12:26:34;;;;;;;4.97;1.60;;;20.30;90.20;;;;;;4991501;28;20914;-83
2022/06/14 12:27:13;;;;;;;4.63;1.70;;;20.50;88.10;;;;;;5005289;28;20395;-82
2022/06/14 12:29:44;;;;;;;6.07;1.90;;;20.60;89.70;;;;;;5003777;28;20417;-82
2022/06/14 12:32:22;;;;;;;5.35;1.60;;;;;;;;;;4974732;28;20392;-82
2022/06/14 12:34:52;;;;;;;3.10;1.30;;;;;;;;;;5003896;28;20438;-83
2022/06/14 12:37:29;;;;;;;5.38;1.60;;;;;;;;;;4978106;28;20735;-83
2022/06/14 12:40:02;;;;;;;6.32;1.80;;;;;;;;;;4974892;28;20479;-82
2022/06/14 12:42:43;;;;;;;3.22;1.60;;;;;;;;;;4989002;28;20415;-84
2022/06/14 12:45:19;;;;;;;3.85;1.67;;;;;;;;;;4986228;28;20416;-83
2022/06/14 12:47:45;;;;;;;5.13;1.75;;;;;;;;;;5000096;28;20371;-82
2022/06/14 12:50:43;;;;;;;5.63;1.70;;;21.90;86.00;;;;;;4975177;28;20395;-83
2022/06/14 12:53:14;;;;;;;7.23;1.90;;;22.00;83.30;;;;;;4994050;28;20401;-82
2022/06/14 12:55:46;;;;;;;5.20;1.60;;;21.70;84.30;;;;;;5001880;28;20568;-83
2022/06/14 12:58:43;;;;;;;5.63;1.48;;;21.60;85.40;;;;;;4977673;28;20432;-82
2022/06/14 13:01:28;;;;;;;4.57;1.65;;;21.30;86.20;;;;;;5009004;28;20486;-82
2022/06/14 13:04:04;;;;;;;5.87;1.63;;;21.10;86.90;;;;;;4995491;28;20395;-83
2022/06/14 13:06:53;;;;;;;7.95;1.85;;;21.00;90.10;;;;;;5016638;28;20497;-83
2022/06/14 13:09:27;;;;;;;6.22;1.67;;;21.40;87.10;;;;;;5017156;28;20382;-82
2022/06/14 13:12:05;;;;;;;5.20;1.60;;;21.80;87.80;;;;;;4988754;28;20420;-84
2022/06/14 13:14:52;;;;;;;4.00;1.40;;;22.40;86.60;;;;;;4986841;28;20389;-83
2022/06/14 13:17:45;;;;;;;4.90;1.55;;;22.60;84.30;;;;;;5013464;28;20393;-83
2022/06/14 13:20:17;;;;;;;4.85;1.48;;;22.40;83.50;;;;;;5014015;28;21021;-84
2022/06/14 13:23:08;;;;;;;2.88;1.40;;;22.30;83.40;;;;;;5015663;28;20461;-83
2022/06/14 13:25:52;;;;;;;4.30;1.45;;;22.00;83.10;;;;;;4995453;28;20448;-85
2022/06/14 13:28:51;;;;;;;4.50;1.42;;;21.90;84.70;;;;;;4989498;28;20408;-84
2022/06/14 13:31:39;;;;;;;4.43;1.50;;;21.50;84.40;;;;;;4998093;28;20408;-85
2022/06/14 13:34:16;;;;;;;3.28;1.27;;;21.20;85.20;;;;;;5004163;28;20372;-86
2022/06/14 13:36:57;;;;;;;5.03;1.60;;;20.90;85.70;;;;;;4994204;28;20535;-84
2022/06/14 13:39:49;;;;;;;4.97;1.50;;;20.80;85.00;;;;;;4977711;28;20409;-85
2022/06/14 13:42:29;;;;;;;4.75;1.50;;;20.40;87.50;;;;;;4974415;28;20424;-83
2022/06/14 13:45:04;;;;;;;4.07;1.55;;;20.40;89.20;;;;;;4982278;28;20757;-85
2022/06/14 13:47:54;;;;;;;12.10;2.40;;;20.70;88.30;;;;;;5001548;28;20468;-86
2022/06/14 13:50:27;;;;;;;4.40;1.65;;;20.70;87.90;;;;;;4978249;28;20393;-85
2022/06/14 13:52:53;;;;;;;4.43;1.70;;;;;;;;;;4982526;28;20399;-83
2022/06/14 13:55:24;;;;;;;4.50;1.40;;;;;;;;;;4999832;28;20765;-83
2022/06/14 13:57:57;;;;;;;3.40;1.30;;;;;;;;;;4985707;28;20407;-85
2022/06/14 14:00:42;;;;;;;4.32;1.52;;;;;;;;;;4999943;28;20459;-84
2022/06/14 14:03:16;;;;;;;3.60;1.30;;;20.70;93.20;;;;;;4983923;28;20382;-83
2022/06/14 14:05:54;;;;;;;4.93;1.52;;;;;;;;;;4979404;28;20384;-85
2022/06/14 14:08:40;;;;;;;4.90;1.35;;;;;;;;;;4984499;28;20517;-84